createdAt,value
2022-08-05T00:00:26.011Z,1.80
2022-08-05T00:02:54.615Z,1.90
2022-08-05T00:06:01.903Z,2.17
2022-08-05T00:08:32.588Z,2.07
2022-08-05T00:11:02.899Z,2.37
2022-08-05T00:13:38.684Z,2.27
2022-08-05T00:16:10.924Z,2.10
2022-08-05T00:18:42.477Z,2.67
2022-08-05T00:21:14.554Z,2.50
2022-08-05T00:23:53.543Z,2.83
2022-08-05T00:26:33.324Z,2.43
2022-08-05T00:29:01.755Z,2.70
2022-08-05T00:31:52.998Z,2.03
2022-08-05T00:34:56.865Z,1.77
2022-08-05T00:37:12.442Z,2.00
2022-08-05T00:39:58.435Z,2.67
2022-08-05T00:42:35.339Z,1.70
2022-08-05T00:45:08.736Z,2.00
2022-08-05T00:47:57.077Z,2.20
2022-08-05T00:50:29.219Z,2.23
2022-08-05T00:52:57.569Z,2.30
2022-08-05T00:55:42.467Z,2.27
2022-08-05T00:58:13.573Z,2.50
2022-08-05T01:00:42.574Z,2.33
2022-08-05T01:03:22.713Z,2.13
2022-08-05T01:05:51.651Z,2.00
2022-08-05T01:08:30.623Z,2.70
2022-08-05T01:11:22.597Z,2.23
2022-08-05T01:14:08.871Z,2.37
2022-08-05T01:16:44.239Z,2.70
2022-08-05T01:19:36.621Z,2.53
2022-08-05T01:22:30.293Z,2.37
2022-08-05T01:25:40.793Z,2.00
2022-08-05T01:28:27.743Z,2.27
2022-08-05T01:31:02.915Z,2.43
2022-08-05T01:33:37.043Z,2.70
2022-08-05T01:36:16.007Z,2.43
2022-08-05T01:38:48.319Z,2.03
2022-08-05T01:41:21.909Z,2.50
2022-08-05T01:43:53.313Z,2.30
2022-08-05T01:46:42.044Z,2.10
2022-08-05T01:49:24.046Z,2.87
2022-08-05T01:52:02.575Z,2.60
2022-08-05T01:54:52.025Z,2.70
2022-08-05T01:58:29.496Z,2.50
2022-08-05T02:00:17.514Z,2.70
2022-08-05T02:02:54.906Z,2.60
2022-08-05T02:05:28.591Z,2.67
2022-08-05T02:08:01.204Z,2.83
2022-08-05T02:10:35.873Z,2.53
2022-08-05T02:13:15.857Z,2.90
2022-08-05T02:15:50.961Z,2.57
2022-08-05T02:18:32.282Z,2.40
2022-08-05T02:21:15.337Z,2.67
2022-08-05T02:23:47.509Z,2.07
2022-08-05T02:26:22.134Z,2.63
2022-08-05T02:28:54.490Z,2.70
2022-08-05T02:31:29.225Z,2.70
2022-08-05T02:34:09.353Z,2.30
2022-08-05T02:36:40.949Z,2.80
2022-08-05T02:39:11.035Z,3.03
2022-08-05T02:41:58.125Z,2.60
2022-08-05T02:44:31.833Z,3.30
2022-08-05T02:47:02.477Z,2.27
2022-08-05T02:49:37.431Z,2.30
2022-08-05T02:52:09.402Z,2.73
2022-08-05T02:54:42.181Z,3.03
2022-08-05T02:58:20.086Z,2.50
2022-08-05T03:00:03.463Z,2.40
2022-08-05T03:02:36.880Z,2.40
2022-08-05T03:05:08.789Z,2.40
2022-08-05T03:07:59.298Z,2.33
2022-08-05T03:10:28.940Z,2.83
2022-08-05T03:15:24.737Z,2.30
2022-08-05T03:17:57.862Z,3.00
2022-08-05T03:20:27.684Z,2.80
2022-08-05T03:22:58.048Z,3.03
2022-08-05T03:26:02.652Z,3.37
2022-08-05T03:28:19.750Z,3.03
2022-08-05T03:30:49.635Z,2.53
2022-08-05T03:33:20.931Z,3.30
2022-08-05T03:35:51.849Z,2.60
2022-08-05T03:38:32.822Z,3.27
2022-08-05T03:41:08.172Z,3.13
2022-08-05T03:44:08.699Z,3.13
2022-08-05T03:46:29.693Z,3.43
2022-08-05T03:49:02.059Z,3.50
2022-08-05T03:52:49.112Z,3.10
2022-08-05T03:55:52.989Z,3.10
2022-08-05T03:57:29.011Z,3.10
2022-08-05T04:00:11.972Z,2.53
2022-08-05T04:02:58.737Z,2.90
2022-08-05T04:05:34.434Z,3.50
2022-08-05T04:08:29.618Z,2.73
2022-08-05T04:10:56.745Z,3.30
2022-08-05T04:13:49.381Z,3.47
2022-08-05T04:16:15.086Z,4.13
2022-08-05T04:18:45.950Z,3.40
2022-08-05T04:22:08.894Z,3.50
2022-08-05T04:24:18.758Z,3.73
2022-08-05T04:26:50.972Z,2.93
2022-08-05T04:29:19.825Z,3.97
2022-08-05T04:31:48.422Z,3.87
2022-08-05T04:34:33.717Z,3.30
2022-08-05T04:37:04.938Z,3.20
2022-08-05T04:39:35.432Z,7.40
2022-08-05T04:42:04.334Z,5.53
2022-08-05T04:44:32.662Z,3.60
2022-08-05T04:47:09.658Z,3.70
2022-08-05T04:50:02.086Z,3.60
2022-08-05T04:52:33.347Z,3.20
2022-08-05T04:55:14.797Z,3.47
2022-08-05T04:57:47.898Z,3.50
2022-08-05T05:00:23.253Z,3.13
2022-08-05T05:02:53.199Z,3.37
2022-08-05T05:05:28.944Z,2.50
2022-08-05T05:08:02.669Z,3.13
2022-08-05T05:10:33.188Z,2.93
2022-08-05T05:13:03.685Z,2.93
2022-08-05T05:15:57.268Z,2.60
2022-08-05T05:18:28.436Z,2.60
2022-08-05T05:21:01.607Z,2.40
2022-08-05T05:24:02.432Z,3.00
2022-08-05T05:26:19.981Z,2.37
2022-08-05T05:28:57.299Z,3.20
2022-08-05T05:31:26.027Z,2.80
2022-08-05T05:34:02.137Z,2.53
2022-08-05T05:36:31.745Z,2.30
2022-08-05T05:39:03.799Z,1.70
2022-08-05T05:41:40.688Z,2.33
2022-08-05T05:44:35.662Z,2.37
2022-08-05T05:47:02.269Z,2.77
2022-08-05T05:49:33.907Z,2.80
2022-08-05T05:52:05.867Z,1.90
2022-08-05T05:54:51.061Z,2.20
2022-08-05T05:57:20.530Z,2.83
2022-08-05T05:59:49.307Z,2.70
2022-08-05T06:02:32.337Z,2.20
2022-08-05T06:05:10.628Z,2.97
2022-08-05T06:07:57.962Z,2.23
2022-08-05T06:10:36.659Z,2.57
2022-08-05T06:13:06.223Z,2.60
2022-08-05T06:16:28.285Z,2.50
2022-08-05T06:18:31.034Z,2.43
2022-08-05T06:21:01.623Z,2.83
2022-08-05T06:23:32.004Z,2.60
2022-08-05T06:26:21.272Z,2.40
2022-08-05T06:28:50.621Z,2.63
2022-08-05T06:31:21.960Z,2.73
2022-08-05T06:34:06.237Z,3.10
2022-08-05T06:36:57.050Z,2.73
2022-08-05T06:39:27.062Z,2.57
2022-08-05T06:41:58.891Z,3.07
2022-08-05T06:44:27.601Z,2.90
2022-08-05T06:46:56.050Z,2.47
2022-08-05T06:50:00.251Z,2.40
2022-08-05T06:52:37.771Z,2.93
2022-08-05T06:55:02.497Z,3.00
2022-08-05T06:58:02.922Z,3.03
2022-08-05T07:00:22.311Z,2.60
2022-08-05T07:02:53.885Z,2.67
2022-08-05T07:05:27.672Z,2.63
2022-08-05T07:08:05.711Z,3.20
2022-08-05T07:10:34.010Z,3.33
2022-08-05T07:13:56.751Z,2.53
2022-08-05T07:18:00.824Z,3.27
2022-08-05T07:19:15.466Z,2.77
2022-08-05T07:21:59.829Z,2.80
2022-08-05T07:24:30.005Z,2.87
2022-08-05T07:26:59.317Z,2.73
2022-08-05T07:30:22.741Z,3.00
2022-08-05T07:32:17.417Z,2.70
2022-08-05T07:34:57.879Z,2.63
2022-08-05T07:37:35.905Z,2.90
2022-08-05T07:40:31.818Z,2.60
2022-08-05T07:42:56.186Z,2.47
2022-08-05T07:45:56.537Z,2.80
2022-08-05T07:48:17.012Z,2.77
2022-08-05T07:51:23.113Z,2.83
2022-08-05T07:53:52.358Z,2.20
2022-08-05T07:57:02.476Z,2.20
2022-08-05T07:59:11.128Z,2.50
2022-08-05T08:01:52.134Z,2.70
2022-08-05T08:04:38.002Z,2.30
2022-08-05T08:07:07.585Z,2.70
2022-08-05T08:09:37.455Z,2.30
2022-08-05T08:12:15.932Z,2.47
2022-08-05T08:14:54.690Z,2.30
2022-08-05T08:17:24.546Z,2.63
2022-08-05T08:20:10.255Z,2.07
2022-08-05T08:22:44.688Z,2.00
2022-08-05T08:25:16.246Z,2.23
2022-08-05T08:27:47.453Z,2.17
2022-08-05T08:30:31.311Z,2.27
2022-08-05T08:33:13.955Z,2.00
2022-08-05T08:35:52.349Z,1.90
2022-08-05T08:38:32.312Z,2.17
2022-08-05T08:41:08.617Z,1.70
2022-08-05T08:45:20.946Z,2.43
2022-08-05T08:46:30.844Z,2.20
2022-08-05T08:50:03.969Z,2.70
2022-08-05T08:52:06.011Z,2.33
2022-08-05T08:54:44.157Z,1.97
2022-08-05T08:57:14.364Z,2.30
2022-08-05T08:59:48.994Z,1.90
2022-08-05T09:02:21.508Z,1.43
2022-08-05T09:05:16.899Z,2.07
2022-08-05T09:07:57.656Z,1.87
2022-08-05T09:10:27.064Z,1.73
2022-08-05T09:12:56.961Z,2.00
2022-08-05T09:15:37.141Z,2.17
2022-08-05T09:18:09.453Z,2.53
2022-08-05T09:20:41.743Z,2.40
2022-08-05T09:23:19.121Z,1.53
2022-08-05T09:26:03.413Z,1.93
2022-08-05T09:28:34.466Z,2.00
2022-08-05T09:32:38.509Z,2.10
2022-08-05T09:33:56.365Z,1.97
2022-08-05T09:36:38.608Z,2.50
2022-08-05T09:39:23.148Z,2.43
2022-08-05T09:41:59.402Z,2.23
2022-08-05T09:44:41.349Z,2.40
2022-08-05T09:47:14.072Z,2.23
2022-08-05T09:50:01.123Z,2.70
2022-08-05T09:52:34.696Z,1.90
2022-08-05T09:55:06.283Z,1.80
2022-08-05T09:57:54.759Z,1.83
2022-08-05T10:00:27.771Z,2.53
2022-08-05T10:02:59.000Z,1.80
2022-08-05T10:05:29.125Z,1.80
2022-08-05T10:08:36.107Z,1.90
2022-08-05T10:10:54.144Z,2.23
2022-08-05T10:13:45.754Z,2.13
2022-08-05T10:16:38.018Z,2.43
2022-08-05T10:19:23.770Z,2.37
2022-08-05T10:22:15.828Z,2.30
2022-08-05T10:24:59.849Z,2.27
2022-08-05T10:28:13.146Z,1.70
2022-08-05T10:31:19.989Z,2.50
2022-08-05T10:33:14.701Z,1.97
2022-08-05T10:35:44.263Z,2.17
2022-08-05T10:38:14.924Z,2.50
2022-08-05T10:40:57.977Z,2.20
2022-08-05T10:43:38.131Z,2.00
2022-08-05T10:46:10.447Z,2.20
2022-08-05T10:48:56.851Z,2.50
2022-08-05T10:51:29.072Z,3.23
2022-08-05T10:54:05.853Z,1.53
2022-08-05T10:56:52.969Z,2.40
2022-08-05T11:00:04.096Z,2.00
2022-08-05T11:02:38.282Z,2.07
2022-08-05T11:05:10.363Z,2.57
2022-08-05T11:08:03.322Z,2.53
2022-08-05T11:10:49.975Z,1.97
2022-08-05T11:13:54.751Z,1.70
2022-08-05T11:16:33.696Z,2.33
2022-08-05T11:20:10.642Z,1.90
2022-08-05T11:22:42.906Z,1.83
2022-08-05T11:26:04.452Z,2.50
2022-08-05T11:28:44.951Z,2.13
2022-08-05T11:31:54.291Z,2.20
2022-08-05T11:34:22.519Z,2.20
2022-08-05T11:36:54.642Z,2.20
2022-08-05T11:39:55.391Z,2.53
2022-08-05T11:42:29.748Z,2.70
2022-08-05T11:45:05.340Z,2.23
2022-08-05T11:47:49.750Z,2.50
2022-08-05T11:50:19.117Z,2.23
2022-08-05T11:52:48.780Z,2.40
2022-08-05T11:55:18.545Z,2.20
2022-08-05T11:58:10.356Z,2.17
2022-08-05T12:00:39.044Z,2.67
2022-08-05T12:03:29.030Z,2.13
2022-08-05T12:06:02.659Z,2.60
2022-08-05T12:08:32.905Z,2.70
2022-08-05T12:11:06.024Z,2.53
2022-08-05T12:13:48.490Z,2.53
2022-08-05T12:16:27.070Z,2.23
2022-08-05T12:18:55.892Z,2.30
2022-08-05T12:21:26.813Z,2.70
2022-08-05T12:24:04.740Z,2.07
2022-08-05T12:26:34.949Z,1.90
2022-08-05T12:29:03.783Z,2.50
2022-08-05T12:34:21.447Z,3.00
2022-08-05T12:36:54.501Z,2.13
2022-08-05T12:39:27.956Z,2.37
2022-08-05T12:42:03.615Z,1.97
2022-08-05T12:44:33.946Z,2.37
2022-08-05T12:47:03.554Z,2.30
2022-08-05T12:50:04.430Z,1.90
2022-08-05T12:52:38.823Z,1.90
2022-08-05T12:55:22.166Z,2.00
2022-08-05T12:58:52.493Z,2.63
2022-08-05T13:02:04.063Z,2.33
2022-08-05T13:03:33.823Z,2.00
2022-08-05T13:06:11.767Z,2.10
2022-08-05T13:08:40.134Z,2.37
2022-08-05T13:11:09.012Z,2.30
2022-08-05T13:14:06.053Z,2.40
2022-08-05T13:16:29.043Z,2.13
2022-08-05T13:18:59.130Z,1.90
2022-08-05T13:21:37.708Z,2.30
2022-08-05T13:24:08.802Z,2.80
2022-08-05T13:26:37.717Z,1.90
2022-08-05T13:29:09.178Z,2.50
2022-08-05T13:32:04.367Z,3.10
2022-08-05T13:34:26.498Z,2.70
2022-08-05T13:36:56.491Z,2.20
2022-08-05T13:40:20.104Z,3.10
2022-08-05T13:42:13.992Z,2.30
2022-08-05T13:44:45.660Z,2.60
2022-08-05T13:47:34.702Z,3.23
2022-08-05T13:50:04.986Z,2.83
2022-08-05T13:52:38.460Z,2.33
2022-08-05T13:55:07.372Z,2.90
2022-08-05T13:57:50.620Z,2.90
2022-08-05T14:00:27.059Z,3.03
2022-08-05T14:02:57.327Z,3.33
2022-08-05T14:05:48.473Z,3.00
2022-08-05T14:08:20.782Z,3.00
2022-08-05T14:11:03.227Z,2.80
2022-08-05T14:13:44.267Z,4.00
2022-08-05T14:16:19.118Z,3.67
2022-08-05T14:18:47.864Z,3.03
2022-08-05T14:22:07.219Z,3.50
2022-08-05T14:24:10.901Z,3.40
2022-08-05T14:26:51.489Z,3.40
2022-08-05T14:29:27.383Z,3.47
2022-08-05T14:32:12.101Z,3.60
2022-08-05T14:34:44.274Z,3.23
2022-08-05T14:37:14.586Z,4.20
2022-08-05T14:39:50.309Z,3.60
2022-08-05T14:42:25.645Z,3.00
2022-08-05T14:44:54.204Z,3.73
2022-08-05T14:48:03.182Z,3.60
2022-08-05T14:50:18.095Z,3.80
2022-08-05T14:52:53.636Z,2.90
2022-08-05T14:55:38.509Z,3.40
2022-08-05T14:58:11.793Z,2.90
2022-08-05T15:00:58.275Z,3.37
2022-08-05T15:03:27.433Z,2.93
2022-08-05T15:06:13.419Z,2.93
2022-08-05T15:08:59.887Z,2.47
2022-08-05T15:11:51.110Z,2.83
2022-08-05T15:14:34.734Z,2.80
2022-08-05T15:17:09.943Z,2.70
2022-08-05T15:19:57.522Z,3.30
2022-08-05T15:22:27.309Z,2.80
2022-08-05T15:24:56.799Z,2.87
2022-08-05T15:27:26.689Z,2.47
2022-08-05T15:30:05.418Z,2.93
2022-08-05T15:32:33.748Z,2.40
2022-08-05T15:35:04.178Z,2.70
2022-08-05T15:38:34.708Z,2.90
2022-08-05T15:41:01.187Z,2.97
2022-08-05T15:43:20.518Z,2.00
2022-08-05T15:46:00.302Z,2.60
2022-08-05T15:48:30.901Z,2.43
2022-08-05T15:51:01.571Z,2.73
2022-08-05T15:53:38.506Z,2.60
2022-08-05T15:56:19.652Z,2.83
2022-08-05T15:58:50.106Z,3.20
2022-08-05T16:01:20.159Z,3.00
2022-08-05T16:03:58.543Z,3.20
2022-08-05T16:06:26.728Z,3.03
2022-08-05T16:08:56.224Z,3.10
2022-08-05T16:11:40.040Z,2.60
2022-08-05T16:14:17.938Z,2.47
2022-08-05T16:16:47.450Z,3.33
2022-08-05T16:19:19.197Z,3.23
2022-08-05T16:22:00.200Z,2.77
2022-08-05T16:24:39.589Z,2.73
2022-08-05T16:27:09.302Z,3.10
2022-08-05T16:29:38.996Z,2.50
2022-08-05T16:32:09.679Z,2.30
2022-08-05T16:34:41.754Z,2.60
2022-08-05T16:38:00.423Z,2.30
2022-08-05T16:40:05.891Z,2.80
2022-08-05T16:42:35.989Z,3.00
2022-08-05T16:46:07.275Z,2.43
2022-08-05T16:47:59.692Z,2.80
2022-08-05T16:50:31.260Z,2.20
2022-08-05T16:53:01.597Z,2.80
2022-08-05T16:55:47.138Z,2.27
2022-08-05T16:58:19.690Z,2.50
2022-08-05T17:00:49.839Z,2.50
2022-08-05T17:03:20.263Z,2.50
2022-08-05T17:05:53.966Z,3.30
2022-08-05T17:08:36.516Z,2.70
2022-08-05T17:11:17.066Z,2.60
2022-08-05T17:13:45.599Z,2.77
2022-08-05T17:16:33.442Z,2.47
2022-08-05T17:19:02.253Z,2.00
2022-08-05T17:21:35.639Z,2.47
2022-08-05T17:24:19.736Z,2.47
2022-08-05T17:26:55.647Z,1.87
2022-08-05T17:29:48.935Z,2.30
2022-08-05T17:32:21.805Z,2.13
2022-08-05T17:34:53.722Z,2.13
2022-08-05T17:37:40.486Z,1.90
2022-08-05T17:40:17.348Z,2.03
2022-08-05T17:42:51.247Z,2.50
2022-08-05T17:45:25.103Z,2.70
2022-08-05T17:47:59.650Z,2.40
2022-08-05T17:50:30.819Z,2.50
2022-08-05T17:53:00.904Z,2.13
2022-08-05T17:55:37.808Z,2.40
2022-08-05T17:58:11.052Z,2.80
2022-08-05T18:00:45.020Z,2.20
2022-08-05T18:03:56.101Z,2.83
2022-08-05T18:06:11.119Z,2.73
2022-08-05T18:08:44.800Z,2.60
2022-08-05T18:11:23.295Z,2.27
2022-08-05T18:13:53.202Z,2.80
2022-08-05T18:16:21.592Z,2.63
2022-08-05T18:18:51.289Z,3.00
2022-08-05T18:21:22.752Z,2.73
2022-08-05T18:23:54.855Z,2.50
2022-08-05T18:26:29.619Z,2.50
2022-08-05T18:29:00.580Z,3.10
2022-08-05T18:31:33.790Z,2.37
2022-08-05T18:34:06.379Z,2.93
2022-08-05T18:36:41.349Z,3.00
2022-08-05T18:39:41.849Z,4.23
2022-08-05T18:42:03.624Z,4.77
2022-08-05T18:44:48.909Z,4.80
2022-08-05T18:47:19.724Z,5.03
2022-08-05T18:50:10.840Z,5.07
2022-08-05T18:52:50.840Z,4.60
2022-08-05T18:55:22.259Z,4.53
2022-08-05T18:57:52.983Z,5.10
2022-08-05T19:00:28.786Z,4.60
2022-08-05T19:03:03.634Z,3.80
2022-08-05T19:06:11.561Z,5.00
2022-08-05T19:08:30.555Z,5.63
2022-08-05T19:11:02.785Z,5.07
2022-08-05T19:13:35.660Z,4.80
2022-08-05T19:16:25.085Z,4.27
2022-08-05T19:18:56.711Z,4.70
2022-08-05T19:21:34.149Z,4.37
2022-08-05T19:24:08.967Z,5.37
2022-08-05T19:26:54.485Z,5.17
2022-08-05T19:29:26.803Z,5.23
2022-08-05T19:32:05.678Z,4.90
2022-08-05T19:34:37.185Z,4.87
2022-08-05T19:37:08.228Z,5.83
2022-08-05T19:39:45.477Z,4.50
2022-08-05T19:42:36.098Z,5.50
2022-08-05T19:45:06.452Z,4.60
2022-08-05T19:47:37.662Z,4.27
2022-08-05T19:50:07.822Z,4.43
2022-08-05T19:52:41.731Z,4.53
2022-08-05T19:56:15.024Z,3.93
2022-08-05T19:58:19.484Z,3.63
2022-08-05T20:00:48.152Z,3.43
2022-08-05T20:03:16.421Z,3.30
2022-08-05T20:05:51.420Z,3.67
2022-08-05T20:08:24.570Z,2.90
2022-08-05T20:10:53.555Z,3.20
2022-08-05T20:13:54.750Z,3.17
2022-08-05T20:16:11.168Z,3.43
2022-08-05T20:18:40.847Z,3.17
2022-08-05T20:21:09.568Z,3.20
2022-08-05T20:23:51.405Z,2.93
2022-08-05T20:26:24.792Z,3.07
2022-08-05T20:28:55.901Z,3.40
2022-08-05T20:31:36.959Z,3.00
2022-08-05T20:34:12.542Z,3.07
2022-08-05T20:36:43.249Z,2.93
2022-08-05T20:39:16.568Z,2.73
2022-08-05T20:41:46.735Z,3.30
2022-08-05T20:44:30.242Z,3.10
2022-08-05T20:47:00.680Z,3.83
2022-08-05T20:49:29.024Z,3.50
2022-08-05T20:51:58.329Z,3.07
2022-08-05T20:54:42.917Z,3.60
2022-08-05T20:57:24.587Z,3.43
2022-08-05T21:00:20.345Z,3.20
2022-08-05T21:03:01.510Z,3.53
2022-08-05T21:05:48.392Z,3.90
2022-08-05T21:08:18.427Z,3.30
2022-08-05T21:10:49.409Z,3.70
2022-08-05T21:13:26.044Z,3.10
2022-08-05T21:16:07.117Z,3.13
2022-08-05T21:18:36.630Z,3.10
2022-08-05T21:21:05.394Z,3.60
2022-08-05T21:23:37.470Z,3.33
2022-08-05T21:26:14.295Z,3.07
2022-08-05T21:28:47.916Z,3.20
2022-08-05T21:31:19.354Z,3.20
2022-08-05T21:33:49.449Z,3.03
2022-08-05T21:36:19.071Z,2.87
2022-08-05T21:38:56.514Z,3.10
2022-08-05T21:41:33.078Z,2.63
2022-08-05T21:44:04.469Z,2.63
2022-08-05T21:46:34.662Z,2.40
2022-08-05T21:49:07.283Z,2.80
2022-08-05T21:52:22.768Z,2.23
2022-08-05T21:54:30.716Z,2.60
2022-08-05T22:00:03.345Z,2.43
2022-08-05T22:02:41.664Z,2.47
2022-08-05T22:05:11.550Z,2.40
2022-08-05T22:07:58.250Z,2.60
2022-08-05T22:10:28.535Z,2.70
2022-08-05T22:13:08.831Z,1.87
2022-08-05T22:16:01.293Z,2.50
2022-08-05T22:18:36.095Z,2.20
2022-08-05T22:21:19.385Z,2.00
2022-08-05T22:24:08.799Z,1.80
2022-08-05T22:26:58.432Z,2.07
2022-08-05T22:29:32.842Z,2.17
2022-08-05T22:32:02.712Z,1.73
2022-08-05T22:34:32.163Z,2.00
2022-08-05T22:37:03.863Z,2.20
2022-08-05T22:39:34.462Z,1.90
2022-08-05T22:42:09.810Z,2.30
2022-08-05T22:44:48.233Z,1.83
2022-08-05T22:47:29.133Z,2.00
2022-08-05T22:50:19.081Z,1.77
2022-08-05T22:52:48.176Z,2.07
2022-08-05T22:55:19.538Z,2.00
2022-08-05T22:57:50.217Z,1.77
2022-08-05T23:00:21.358Z,1.63
2022-08-05T23:02:52.000Z,2.00
2022-08-05T23:05:22.543Z,1.60
2022-08-05T23:07:51.603Z,1.83
2022-08-05T23:10:20.838Z,2.43
2022-08-05T23:12:55.023Z,2.20
2022-08-05T23:15:29.573Z,1.90
2022-08-05T23:18:06.132Z,1.77
2022-08-05T23:20:40.345Z,1.57
2022-08-05T23:23:11.475Z,2.07
2022-08-05T23:25:54.629Z,1.73
2022-08-05T23:28:28.796Z,1.33
2022-08-05T23:31:07.117Z,1.97
2022-08-05T23:34:04.853Z,1.73
2022-08-05T23:36:39.913Z,1.63
2022-08-05T23:39:17.660Z,1.83
2022-08-05T23:42:01.263Z,1.53
2022-08-05T23:44:31.578Z,2.10
2022-08-05T23:47:02.571Z,1.47
2022-08-05T23:49:43.366Z,1.60
2022-08-05T23:52:30.754Z,1.87
2022-08-05T23:55:02.079Z,1.70
2022-08-05T23:57:34.050Z,1.87
